PMDY METAR and TAF weather

Enter ICAO airport designator
Station Type Date Time Source
PMDY METAR 2019/08/25 12:56 UTC NOAA

PMDY 251256Z AUTO 12005KT 9SM CLR 28/23 A3001 RMK AO2 SLP163 T02780233


Station Type Date Time Source
PMDY Decoded METAR 2019/08/25 12:56 UTC NOAA

Station name not available
Aug 25, 2019 - 08:56 AM EDT / 2019.08.25 1256 UTC
Wind: from the ESE (120 degrees) at 6 MPH (5 KT):0
Visibility: 9 mile(s):0
Sky conditions: clear
Temperature: 82.0 F (27.8 C)
Dew Point: 73.9 F (23.3 C)
Relative Humidity: 76%
Pressure (altimeter): 30.01 in. Hg (1016 hPa)
ob: PMDY 251256Z AUTO 12005KT 9SM CLR 28/23 A3001 RMK AO2 SLP163 T02780233
cycle: 13

Station Type Date Time Source
PMDY TAF 2019/08/25 12:27 UTC NOAA

TAF PMDY 251124Z 2512/2612 11006KT P6SM VCSH SCT045

Example: see airport list